createdAt,value
2023-11-14T00:00:50.744Z,12.48
2023-11-14T00:04:20.604Z,14.85
2023-11-14T00:07:27.622Z,15.17
2023-11-14T00:10:43.549Z,14.87
2023-11-14T00:13:56.130Z,14.57
2023-11-14T00:17:13.649Z,14.93
2023-11-14T00:20:41.244Z,14.85
2023-11-14T00:23:51.381Z,13.83
2023-11-14T00:27:02.775Z,15.57
2023-11-14T00:30:29.152Z,13.73
2023-11-14T00:33:37.654Z,16.20
2023-11-14T00:37:08.079Z,17.48
2023-11-14T00:40:28.862Z,16.00
2023-11-14T00:47:35.942Z,17.27
2023-11-14T00:50:49.322Z,17.33
2023-11-14T00:54:13.588Z,16.98
2023-11-14T00:57:29.448Z,17.83
2023-11-14T01:00:36.787Z,16.50
2023-11-14T01:04:02.100Z,16.37
2023-11-14T01:07:14.668Z,16.10
2023-11-14T01:10:48.822Z,17.42
2023-11-14T01:14:08.848Z,17.50
2023-11-14T01:17:31.843Z,18.73
2023-11-14T01:20:54.733Z,16.70
2023-11-14T01:24:10.088Z,16.98
2023-11-14T01:27:37.328Z,15.45
2023-11-14T01:31:16.392Z,13.67
2023-11-14T01:38:06.913Z,14.57
2023-11-14T01:44:41.568Z,15.30
2023-11-14T01:48:14.099Z,14.70
2023-11-14T01:51:37.351Z,16.03
2023-11-14T01:54:46.695Z,15.95
2023-11-14T02:02:01.554Z,14.68
2023-11-14T02:05:10.360Z,18.50
2023-11-14T02:08:42.898Z,14.97
2023-11-14T02:11:59.018Z,15.18
2023-11-14T02:15:12.623Z,14.35
2023-11-14T02:18:21.834Z,15.40
2023-11-14T02:21:32.901Z,16.13
2023-11-14T02:24:47.118Z,16.20
2023-11-14T02:31:43.922Z,15.63
2023-11-14T02:34:50.326Z,15.38
2023-11-14T02:38:25.142Z,15.37
2023-11-14T02:41:41.994Z,18.00
2023-11-14T02:45:08.762Z,18.05
2023-11-14T02:48:37.172Z,16.85
2023-11-14T02:52:12.986Z,16.48
2023-11-14T02:55:21.332Z,15.30
2023-11-14T02:58:59.983Z,15.60
2023-11-14T03:02:13.580Z,15.82
2023-11-14T03:05:38.059Z,15.65
2023-11-14T03:08:58.072Z,14.23
2023-11-14T03:15:54.558Z,13.90
2023-11-14T03:19:07.277Z,15.20
2023-11-14T03:22:22.257Z,15.00
2023-11-14T03:25:42.427Z,13.27
2023-11-14T03:29:12.804Z,11.97
2023-11-14T03:32:42.529Z,12.93
2023-11-14T03:36:00.325Z,13.13
2023-11-14T03:39:03.258Z,12.82
2023-11-14T03:42:05.992Z,12.43
2023-11-14T03:45:09.820Z,11.23
2023-11-14T03:48:16.036Z,11.10
2023-11-14T03:51:18.755Z,11.90
2023-11-14T03:54:23.822Z,13.02
2023-11-14T03:57:27.957Z,11.25
2023-11-14T04:00:30.308Z,13.63
2023-11-14T04:03:33.604Z,13.13
2023-11-14T04:06:36.238Z,12.02
2023-11-14T04:09:42.266Z,12.95
2023-11-14T04:12:44.830Z,11.88
2023-11-14T04:15:49.836Z,14.93
2023-11-14T04:18:52.238Z,10.70
2023-11-14T04:21:55.289Z,11.85
2023-11-14T04:25:00.832Z,12.13
2023-11-14T04:28:04.763Z,12.52
2023-11-14T04:31:10.917Z,9.73
2023-11-14T04:34:13.771Z,9.90
2023-11-14T04:37:17.076Z,10.55
2023-11-14T04:40:22.540Z,9.73
2023-11-14T04:43:27.439Z,9.45
2023-11-14T04:46:30.181Z,10.63
2023-11-14T04:49:32.748Z,9.50
2023-11-14T04:52:37.802Z,9.77
2023-11-14T04:55:40.343Z,8.48
2023-11-14T04:58:43.190Z,8.73
2023-11-14T05:01:48.663Z,10.07
2023-11-14T05:04:53.644Z,8.80
2023-11-14T05:07:56.019Z,9.13
2023-11-14T05:10:58.739Z,8.50
2023-11-14T05:14:01.218Z,7.50
2023-11-14T05:17:06.380Z,10.13
2023-11-14T05:20:09.761Z,9.47
2023-11-14T05:23:12.694Z,8.63
2023-11-14T05:26:15.502Z,8.07
2023-11-14T05:29:18.291Z,7.12
2023-11-14T05:32:20.692Z,8.67
2023-11-14T05:35:23.485Z,8.33
2023-11-14T05:38:29.717Z,9.27
2023-11-14T05:41:32.611Z,9.02
2023-11-14T05:44:35.164Z,9.85
2023-11-14T05:47:37.989Z,10.10
2023-11-14T05:50:43.200Z,10.07
2023-11-14T05:53:46.478Z,10.00
2023-11-14T05:56:48.872Z,10.40
2023-11-14T05:59:56.998Z,9.57
2023-11-14T06:02:59.614Z,11.33
2023-11-14T06:06:03.512Z,10.57
2023-11-14T06:09:07.902Z,10.18
2023-11-14T06:12:11.471Z,10.75
2023-11-14T06:15:14.805Z,11.05
2023-11-14T06:18:17.486Z,11.90
2023-11-14T06:21:19.854Z,11.80
2023-11-14T06:24:23.918Z,11.45
2023-11-14T06:27:26.438Z,10.68
2023-11-14T06:30:29.287Z,10.73
2023-11-14T06:33:33.880Z,12.10
2023-11-14T06:36:36.869Z,11.17
2023-11-14T06:39:39.942Z,10.10
2023-11-14T06:42:44.503Z,9.30
2023-11-14T06:45:46.914Z,9.68
2023-11-14T06:48:49.767Z,8.77
2023-11-14T06:51:53.526Z,9.57
2023-11-14T06:55:03.490Z,9.30
2023-11-14T06:58:06.517Z,9.27
2023-11-14T07:01:13.711Z,9.23
2023-11-14T07:04:17.631Z,9.57
2023-11-14T07:07:22.948Z,8.10
2023-11-14T07:10:25.757Z,9.65
2023-11-14T07:13:30.588Z,9.40
2023-11-14T07:16:33.091Z,9.27
2023-11-14T07:19:35.890Z,9.17
2023-11-14T07:22:41.947Z,9.27
2023-11-14T07:25:46.044Z,9.30
2023-11-14T07:28:48.552Z,8.02
2023-11-14T07:31:51.871Z,8.32
2023-11-14T07:34:55.480Z,9.43
2023-11-14T07:38:00.449Z,9.50
2023-11-14T07:41:03.207Z,8.52
2023-11-14T07:44:07.612Z,8.50
2023-11-14T07:47:16.194Z,8.27
2023-11-14T07:50:23.746Z,9.03
2023-11-14T07:53:26.334Z,7.93
2023-11-14T07:56:30.533Z,9.50
2023-11-14T07:59:33.020Z,8.93
2023-11-14T08:02:36.635Z,10.02
2023-11-14T08:05:42.839Z,7.70
2023-11-14T08:08:45.761Z,7.90
2023-11-14T08:11:48.876Z,8.77
2023-11-14T08:14:51.657Z,8.93
2023-11-14T08:17:55.794Z,8.35
2023-11-14T08:21:01.158Z,8.87
2023-11-14T08:24:04.181Z,9.10
2023-11-14T08:27:07.099Z,7.78
2023-11-14T08:30:13.988Z,7.85
2023-11-14T08:33:16.463Z,7.87
2023-11-14T08:36:19.310Z,8.30
2023-11-14T08:39:26.846Z,7.80
2023-11-14T08:42:31.106Z,7.50
2023-11-14T08:45:33.606Z,7.70
2023-11-14T08:48:36.396Z,6.78
2023-11-14T08:51:39.855Z,6.20
2023-11-14T08:54:42.813Z,7.03
2023-11-14T08:57:45.288Z,6.93
2023-11-14T09:00:48.458Z,5.18
2023-11-14T09:03:51.456Z,7.62
2023-11-14T09:06:54.153Z,5.13
2023-11-14T09:09:56.690Z,5.87
2023-11-14T09:12:59.489Z,5.37
2023-11-14T09:16:03.610Z,5.12
2023-11-14T09:19:08.047Z,5.53
2023-11-14T09:22:10.648Z,4.87
2023-11-14T09:25:13.598Z,5.33
2023-11-14T09:28:16.170Z,5.97
2023-11-14T09:31:18.900Z,5.93
2023-11-14T09:34:21.360Z,5.47
2023-11-14T09:37:24.231Z,4.93
2023-11-14T09:40:27.029Z,6.60
2023-11-14T09:43:30.725Z,5.70
2023-11-14T09:46:33.816Z,5.32
2023-11-14T09:49:41.823Z,4.72
2023-11-14T09:52:45.336Z,5.53
2023-11-14T09:55:48.266Z,5.30
2023-11-14T09:58:51.995Z,5.22
2023-11-14T10:01:55.715Z,5.15
2023-11-14T10:05:03.777Z,5.62
2023-11-14T10:08:15.214Z,5.00
2023-11-14T10:11:18.058Z,5.53
2023-11-14T10:14:22.418Z,4.60
2023-11-14T10:17:31.103Z,5.05
2023-11-14T10:23:46.260Z,4.37
2023-11-14T10:26:52.302Z,4.00
2023-11-14T10:29:55.990Z,4.00
2023-11-14T10:32:58.493Z,3.75
2023-11-14T10:36:09.556Z,4.30
2023-11-14T10:39:12.083Z,4.27
2023-11-14T10:42:15.211Z,4.07
2023-11-14T10:45:18.427Z,3.55
2023-11-14T10:48:22.601Z,4.40
2023-11-14T10:51:25.259Z,3.97
2023-11-14T10:54:30.562Z,5.13
2023-11-14T10:57:35.007Z,5.20
2023-11-14T11:00:38.609Z,4.50
2023-11-14T11:03:41.332Z,4.80
2023-11-14T11:06:47.092Z,4.47
2023-11-14T11:09:50.787Z,4.60
2023-11-14T11:12:54.146Z,4.63
2023-11-14T11:15:58.637Z,4.78
2023-11-14T11:19:01.565Z,5.43
2023-11-14T11:22:07.608Z,4.75
2023-11-14T11:25:28.017Z,4.93
2023-11-14T11:28:35.611Z,5.30
2023-11-14T11:31:39.197Z,5.65
2023-11-14T11:34:41.614Z,5.50
2023-11-14T11:37:45.021Z,5.32
2023-11-14T11:41:24.059Z,6.30
2023-11-14T11:44:36.687Z,6.40
2023-11-14T11:47:39.824Z,6.07
2023-11-14T11:50:45.213Z,6.47
2023-11-14T11:53:48.721Z,6.65
2023-11-14T11:57:01.744Z,7.00
2023-11-14T12:00:10.010Z,6.60
2023-11-14T12:03:17.327Z,7.18
2023-11-14T12:06:20.766Z,6.12
2023-11-14T12:09:23.844Z,6.97
2023-11-14T12:12:27.750Z,5.80
2023-11-14T12:15:33.614Z,5.63
2023-11-14T12:18:39.079Z,5.22
2023-11-14T12:21:42.437Z,5.40
2023-11-14T12:24:45.383Z,5.75
2023-11-14T12:27:51.089Z,5.80
2023-11-14T12:31:02.705Z,5.50
2023-11-14T12:34:09.685Z,6.10
2023-11-14T12:37:18.456Z,5.68
2023-11-14T12:40:21.223Z,5.35
2023-11-14T12:43:23.562Z,5.00
2023-11-14T12:46:34.597Z,5.03
2023-11-14T12:49:48.335Z,5.72
2023-11-14T12:52:53.981Z,5.30
2023-11-14T12:55:56.479Z,5.53
2023-11-14T12:58:59.347Z,5.10
2023-11-14T13:02:04.243Z,5.07
2023-11-14T13:05:08.284Z,5.18
2023-11-14T13:08:10.903Z,4.75
2023-11-14T13:11:16.385Z,5.25
2023-11-14T13:14:18.805Z,4.90
2023-11-14T13:17:21.596Z,4.83
2023-11-14T13:20:23.992Z,4.62
2023-11-14T13:23:27.035Z,5.20
2023-11-14T13:26:29.486Z,5.03
2023-11-14T13:29:32.355Z,5.30
2023-11-14T13:32:35.625Z,5.37
2023-11-14T13:35:39.561Z,5.40
2023-11-14T13:38:45.423Z,4.53
2023-11-14T13:41:48.525Z,5.47
2023-11-14T13:44:51.020Z,5.20
2023-11-14T13:47:54.017Z,4.90
2023-11-14T13:50:56.831Z,5.00
2023-11-14T13:53:59.664Z,6.00
2023-11-14T13:57:05.428Z,5.25
2023-11-14T14:00:08.586Z,5.73
2023-11-14T14:03:11.535Z,6.07
2023-11-14T14:06:16.270Z,7.20
2023-11-14T14:09:19.022Z,5.32
2023-11-14T14:12:22.197Z,7.20
2023-11-14T14:15:25.522Z,6.57
2023-11-14T14:18:30.377Z,5.80
2023-11-14T14:21:33.596Z,5.55
2023-11-14T14:24:35.942Z,5.03
2023-11-14T14:27:39.029Z,4.72
2023-11-14T14:30:41.576Z,5.87
2023-11-14T14:33:44.358Z,5.23
2023-11-14T14:36:46.934Z,4.85
2023-11-14T14:39:52.731Z,4.57
2023-11-14T14:42:56.287Z,3.55
2023-11-14T14:45:59.115Z,3.40
2023-11-14T14:49:01.498Z,3.80
2023-11-14T14:52:07.161Z,3.20
2023-11-14T14:55:11.430Z,3.58
2023-11-14T14:58:14.444Z,3.20
2023-11-14T15:01:19.232Z,3.27
2023-11-14T15:04:22.269Z,3.27
2023-11-14T15:07:28.668Z,2.75
2023-11-14T15:10:31.836Z,3.20
2023-11-14T15:13:34.341Z,2.90
2023-11-14T15:16:37.144Z,3.00
2023-11-14T15:19:39.655Z,2.87
2023-11-14T15:22:42.798Z,3.25
2023-11-14T15:25:45.803Z,3.15
2023-11-14T15:28:48.690Z,3.60
2023-11-14T15:31:54.112Z,3.20
2023-11-14T15:34:59.629Z,4.80
2023-11-14T15:38:02.043Z,3.40
2023-11-14T15:41:06.849Z,3.28
2023-11-14T15:44:09.380Z,4.05
2023-11-14T15:47:12.123Z,3.47
2023-11-14T15:50:17.276Z,3.10
2023-11-14T15:53:22.397Z,3.20
2023-11-14T15:56:25.548Z,2.58
2023-11-14T15:59:28.527Z,2.70
2023-11-14T16:02:31.078Z,2.40
2023-11-14T16:05:33.951Z,2.70
2023-11-14T16:08:39.627Z,2.12
2023-11-14T16:11:42.396Z,2.03
2023-11-14T16:14:44.898Z,2.50
2023-11-14T16:17:48.204Z,2.27
2023-11-14T16:20:52.374Z,2.17
2023-11-14T16:23:56.719Z,2.50
2023-11-14T16:26:59.904Z,2.15
2023-11-14T16:30:02.704Z,2.08
2023-11-14T16:33:06.540Z,2.40
2023-11-14T16:36:10.460Z,2.17
2023-11-14T16:39:13.107Z,2.12
2023-11-14T16:42:15.946Z,2.03
2023-11-14T16:45:21.208Z,1.90
2023-11-14T16:48:23.965Z,2.10
2023-11-14T16:51:32.050Z,1.90
2023-11-14T16:54:35.073Z,2.33
2023-11-14T16:57:40.222Z,2.10
2023-11-14T17:00:43.687Z,2.28
2023-11-14T17:03:46.270Z,2.23
2023-11-14T17:06:51.300Z,2.17
2023-11-14T17:09:54.428Z,2.72
2023-11-14T17:12:57.384Z,2.75
2023-11-14T17:16:02.320Z,2.72
2023-11-14T17:19:06.189Z,2.40
2023-11-14T17:22:08.728Z,2.17
2023-11-14T17:25:17.128Z,2.00
2023-11-14T17:28:19.592Z,2.10
2023-11-14T17:31:22.415Z,2.00
2023-11-14T17:34:24.837Z,2.00
2023-11-14T17:37:27.556Z,2.03
2023-11-14T17:40:32.838Z,1.73
2023-11-14T17:43:35.505Z,1.95
2023-11-14T17:46:38.534Z,1.92
2023-11-14T17:49:41.955Z,1.97
2023-11-14T17:52:44.650Z,2.20
2023-11-14T17:55:47.476Z,2.40
2023-11-14T17:58:51.395Z,2.22
2023-11-14T18:01:56.578Z,1.80
2023-11-14T18:04:59.460Z,2.10
2023-11-14T18:08:06.075Z,2.13
2023-11-14T18:11:09.018Z,1.67
2023-11-14T18:14:13.919Z,1.67
2023-11-14T18:17:16.956Z,2.08
2023-11-14T18:20:20.570Z,1.90
2023-11-14T18:23:23.878Z,2.37
2023-11-14T18:26:27.472Z,1.87
2023-11-14T18:29:32.037Z,1.85
2023-11-14T18:32:36.903Z,2.00
2023-11-14T18:35:46.698Z,2.17
2023-11-14T18:38:51.430Z,1.70
2023-11-14T18:41:56.738Z,1.80
2023-11-14T18:45:07.079Z,1.75
2023-11-14T18:48:11.472Z,2.20
2023-11-14T18:51:15.304Z,1.50
2023-11-14T18:54:18.016Z,1.63
2023-11-14T18:57:20.454Z,1.67
2023-11-14T19:00:26.107Z,1.65
2023-11-14T19:03:29.077Z,1.45
2023-11-14T19:06:34.076Z,1.67
2023-11-14T19:09:36.497Z,1.83
2023-11-14T19:12:40.035Z,1.85
2023-11-14T19:15:44.210Z,1.65
2023-11-14T19:18:50.818Z,2.15
2023-11-14T19:21:53.220Z,1.60
2023-11-14T19:25:02.038Z,2.13
2023-11-14T19:28:06.876Z,1.95
2023-11-14T19:31:10.270Z,1.42
2023-11-14T19:34:14.145Z,1.30
2023-11-14T19:37:16.967Z,1.60
2023-11-14T19:40:19.511Z,1.60
2023-11-14T19:43:22.169Z,1.80
2023-11-14T19:46:25.155Z,1.75
2023-11-14T19:49:36.152Z,1.80
2023-11-14T19:52:41.749Z,1.73
2023-11-14T19:55:44.898Z,1.57
2023-11-14T19:58:47.646Z,1.80
2023-11-14T20:01:50.476Z,1.80
2023-11-14T20:04:55.968Z,1.62
2023-11-14T20:07:58.791Z,1.93
2023-11-14T20:11:01.479Z,2.20
2023-11-14T20:14:04.093Z,2.20
2023-11-14T20:17:08.185Z,2.50
2023-11-14T20:20:15.109Z,1.98
2023-11-14T20:23:19.394Z,1.77
2023-11-14T20:26:22.472Z,1.87
2023-11-14T20:29:25.291Z,1.75
2023-11-14T20:32:28.719Z,1.60
2023-11-14T20:35:31.448Z,1.62
2023-11-14T20:38:36.656Z,1.60
2023-11-14T20:41:39.322Z,1.70
2023-11-14T20:44:42.960Z,1.52
2023-11-14T20:47:46.082Z,1.87
2023-11-14T20:50:48.565Z,2.10
2023-11-14T20:53:51.406Z,1.77
2023-11-14T20:56:53.823Z,1.77
2023-11-14T20:59:56.466Z,2.37
2023-11-14T21:02:58.960Z,2.58
2023-11-14T21:06:02.897Z,2.00
2023-11-14T21:09:07.749Z,2.10
2023-11-14T21:12:10.727Z,2.37
2023-11-14T21:15:13.330Z,2.12
2023-11-14T21:18:17.813Z,2.25
2023-11-14T21:21:20.685Z,2.17
2023-11-14T21:24:23.393Z,2.33
2023-11-14T21:27:31.384Z,2.80
2023-11-14T21:30:39.375Z,2.58
2023-11-14T21:33:45.122Z,2.92
2023-11-14T21:36:47.996Z,2.53
2023-11-14T21:39:51.623Z,3.00
2023-11-14T21:42:54.399Z,2.60
2023-11-14T21:45:59.324Z,2.78
2023-11-14T21:49:02.822Z,2.22
2023-11-14T21:52:08.725Z,2.40
2023-11-14T21:55:13.930Z,2.77
2023-11-14T21:58:16.667Z,2.90
2023-11-14T22:01:21.962Z,3.17
2023-11-14T22:04:25.045Z,3.20
2023-11-14T22:07:30.560Z,4.35
2023-11-14T22:10:33.591Z,3.90
2023-11-14T22:13:36.110Z,3.60
2023-11-14T22:16:38.760Z,3.92
2023-11-14T22:19:44.096Z,3.75
2023-11-14T22:22:46.902Z,3.65
2023-11-14T22:25:49.430Z,4.13
2023-11-14T22:28:54.895Z,3.17
2023-11-14T22:31:59.357Z,3.85
2023-11-14T22:35:02.152Z,3.60
2023-11-14T22:38:05.530Z,3.78
2023-11-14T22:41:10.501Z,2.97
2023-11-14T22:44:13.065Z,3.30
2023-11-14T22:47:16.003Z,3.83
2023-11-14T22:50:18.539Z,3.60
2023-11-14T22:53:22.499Z,4.20
2023-11-14T22:56:25.437Z,3.50
2023-11-14T22:59:28.311Z,4.00
2023-11-14T23:02:30.695Z,3.75
2023-11-14T23:05:33.523Z,3.80
2023-11-14T23:08:36.533Z,3.50
2023-11-14T23:11:39.313Z,3.80
2023-11-14T23:14:42.107Z,3.17
2023-11-14T23:17:47.248Z,3.70
2023-11-14T23:20:52.325Z,4.53
2023-11-14T23:23:57.588Z,3.53
2023-11-14T23:27:00.263Z,3.80
2023-11-14T23:30:05.712Z,4.37
2023-11-14T23:33:09.108Z,4.22
2023-11-14T23:36:14.643Z,5.12
2023-11-14T23:39:20.767Z,5.10
2023-11-14T23:42:23.753Z,4.47
2023-11-14T23:45:26.401Z,4.40
2023-11-14T23:48:35.035Z,4.50
2023-11-14T23:51:37.494Z,5.03
2023-11-14T23:54:40.162Z,4.80
2023-11-14T23:57:42.526Z,5.20
